sensor_id;sensor_type;location;lat;lon;timestamp;P1;durP1;ratioP1;P2;durP2;ratioP2
31402;SDS011;18039;52.188;21.024;2023-04-06T00:00:35;12.68;;;5.88;;
31402;SDS011;18039;52.188;21.024;2023-04-06T00:03:15;11.75;;;6.07;;
31402;SDS011;18039;52.188;21.024;2023-04-06T00:05:43;12.90;;;5.55;;
31402;SDS011;18039;52.188;21.024;2023-04-06T00:08:11;11.95;;;6.30;;
31402;SDS011;18039;52.188;21.024;2023-04-06T00:10:38;12.38;;;6.00;;
31402;SDS011;18039;52.188;21.024;2023-04-06T00:13:05;15.90;;;5.88;;
31402;SDS011;18039;52.188;21.024;2023-04-06T00:15:34;14.38;;;6.53;;
31402;SDS011;18039;52.188;21.024;2023-04-06T00:18:02;13.60;;;6.43;;
31402;SDS011;18039;52.188;21.024;2023-04-06T00:20:29;12.52;;;5.88;;
31402;SDS011;18039;52.188;21.024;2023-04-06T00:22:56;15.40;;;6.43;;
31402;SDS011;18039;52.188;21.024;2023-04-06T00:25:24;15.35;;;6.25;;
31402;SDS011;18039;52.188;21.024;2023-04-06T00:27:52;10.88;;;5.57;;
31402;SDS011;18039;52.188;21.024;2023-04-06T00:30:19;11.27;;;5.70;;
31402;SDS011;18039;52.188;21.024;2023-04-06T00:32:46;12.82;;;6.55;;
31402;SDS011;18039;52.188;21.024;2023-04-06T00:35:14;12.90;;;6.07;;
31402;SDS011;18039;52.188;21.024;2023-04-06T00:37:42;9.32;;;4.65;;
31402;SDS011;18039;52.188;21.024;2023-04-06T00:40:09;12.13;;;5.57;;
31402;SDS011;18039;52.188;21.024;2023-04-06T00:42:37;10.38;;;5.22;;
31402;SDS011;18039;52.188;21.024;2023-04-06T00:45:04;10.55;;;5.28;;
31402;SDS011;18039;52.188;21.024;2023-04-06T00:47:32;11.77;;;5.75;;
31402;SDS011;18039;52.188;21.024;2023-04-06T00:50:00;16.90;;;6.55;;
31402;SDS011;18039;52.188;21.024;2023-04-06T00:52:27;11.23;;;5.95;;
31402;SDS011;18039;52.188;21.024;2023-04-06T00:54:54;11.43;;;5.25;;
31402;SDS011;18039;52.188;21.024;2023-04-06T00:57:22;14.63;;;6.13;;
31402;SDS011;18039;52.188;21.024;2023-04-06T00:59:54;12.48;;;5.82;;
31402;SDS011;18039;52.188;21.024;2023-04-06T01:02:21;10.50;;;5.63;;
31402;SDS011;18039;52.188;21.024;2023-04-06T01:04:52;11.57;;;5.65;;
31402;SDS011;18039;52.188;21.024;2023-04-06T01:07:26;9.85;;;5.13;;
31402;SDS011;18039;52.188;21.024;2023-04-06T01:10:04;11.30;;;5.28;;
31402;SDS011;18039;52.188;21.024;2023-04-06T01:12:34;12.52;;;5.32;;
31402;SDS011;18039;52.188;21.024;2023-04-06T01:15:04;10.48;;;4.93;;
31402;SDS011;18039;52.188;21.024;2023-04-06T01:17:37;11.43;;;5.72;;
31402;SDS011;18039;52.188;21.024;2023-04-06T01:20:10;11.77;;;5.93;;
31402;SDS011;18039;52.188;21.024;2023-04-06T01:22:38;12.10;;;5.32;;
31402;SDS011;18039;52.188;21.024;2023-04-06T01:25:06;12.25;;;5.57;;
31402;SDS011;18039;52.188;21.024;2023-04-06T01:27:42;13.23;;;6.18;;
31402;SDS011;18039;52.188;21.024;2023-04-06T01:30:45;11.05;;;5.50;;
31402;SDS011;18039;52.188;21.024;2023-04-06T01:33:30;11.73;;;5.57;;
31402;SDS011;18039;52.188;21.024;2023-04-06T01:38:30;12.00;;;5.63;;
31402;SDS011;18039;52.188;21.024;2023-04-06T01:40:57;7.43;;;5.10;;
31402;SDS011;18039;52.188;21.024;2023-04-06T01:43:29;10.73;;;5.30;;
31402;SDS011;18039;52.188;21.024;2023-04-06T01:46:01;8.82;;;4.40;;
31402;SDS011;18039;52.188;21.024;2023-04-06T01:48:33;11.68;;;5.55;;
31402;SDS011;18039;52.188;21.024;2023-04-06T01:51:07;12.43;;;4.90;;
31402;SDS011;18039;52.188;21.024;2023-04-06T01:53:43;11.35;;;4.68;;
31402;SDS011;18039;52.188;21.024;2023-04-06T01:56:11;9.43;;;4.53;;
31402;SDS011;18039;52.188;21.024;2023-04-06T01:58:45;10.68;;;4.22;;
31402;SDS011;18039;52.188;21.024;2023-04-06T02:01:15;11.90;;;4.15;;
31402;SDS011;18039;52.188;21.024;2023-04-06T02:03:50;9.98;;;4.40;;
31402;SDS011;18039;52.188;21.024;2023-04-06T02:06:18;8.68;;;4.38;;
31402;SDS011;18039;52.188;21.024;2023-04-06T02:08:45;7.97;;;4.65;;
31402;SDS011;18039;52.188;21.024;2023-04-06T02:11:13;10.18;;;4.18;;
31402;SDS011;18039;52.188;21.024;2023-04-06T02:13:45;9.95;;;4.50;;
31402;SDS011;18039;52.188;21.024;2023-04-06T02:16:12;10.25;;;4.50;;
31402;SDS011;18039;52.188;21.024;2023-04-06T02:18:39;8.85;;;4.65;;
31402;SDS011;18039;52.188;21.024;2023-04-06T02:21:07;7.43;;;4.10;;
31402;SDS011;18039;52.188;21.024;2023-04-06T02:23:34;7.15;;;3.83;;
31402;SDS011;18039;52.188;21.024;2023-04-06T02:26:02;10.38;;;4.35;;
31402;SDS011;18039;52.188;21.024;2023-04-06T02:28:28;10.93;;;4.50;;
31402;SDS011;18039;52.188;21.024;2023-04-06T02:30:56;9.10;;;4.57;;
31402;SDS011;18039;52.188;21.024;2023-04-06T02:33:26;11.00;;;4.03;;
31402;SDS011;18039;52.188;21.024;2023-04-06T02:35:53;7.43;;;4.15;;
31402;SDS011;18039;52.188;21.024;2023-04-06T02:38:20;8.68;;;4.28;;
31402;SDS011;18039;52.188;21.024;2023-04-06T02:40:48;8.20;;;4.03;;
31402;SDS011;18039;52.188;21.024;2023-04-06T02:43:19;9.23;;;5.05;;
31402;SDS011;18039;52.188;21.024;2023-04-06T02:45:49;8.93;;;4.70;;
31402;SDS011;18039;52.188;21.024;2023-04-06T02:48:17;9.07;;;4.50;;
31402;SDS011;18039;52.188;21.024;2023-04-06T02:50:44;9.80;;;4.32;;
31402;SDS011;18039;52.188;21.024;2023-04-06T02:53:12;9.95;;;4.30;;
31402;SDS011;18039;52.188;21.024;2023-04-06T02:55:39;8.85;;;4.72;;
31402;SDS011;18039;52.188;21.024;2023-04-06T02:58:06;12.88;;;4.60;;
31402;SDS011;18039;52.188;21.024;2023-04-06T03:00:44;14.60;;;6.65;;
31402;SDS011;18039;52.188;21.024;2023-04-06T03:03:11;10.88;;;4.30;;
31402;SDS011;18039;52.188;21.024;2023-04-06T03:05:40;10.80;;;5.25;;
31402;SDS011;18039;52.188;21.024;2023-04-06T03:08:09;9.07;;;4.60;;
31402;SDS011;18039;52.188;21.024;2023-04-06T03:10:44;12.52;;;6.10;;
31402;SDS011;18039;52.188;21.024;2023-04-06T03:13:12;11.68;;;5.85;;
31402;SDS011;18039;52.188;21.024;2023-04-06T03:15:49;14.77;;;6.55;;
31402;SDS011;18039;52.188;21.024;2023-04-06T03:18:22;15.65;;;6.00;;
31402;SDS011;18039;52.188;21.024;2023-04-06T03:20:52;13.25;;;5.88;;
31402;SDS011;18039;52.188;21.024;2023-04-06T03:23:24;11.85;;;5.82;;
31402;SDS011;18039;52.188;21.024;2023-04-06T03:25:57;14.85;;;6.22;;
31402;SDS011;18039;52.188;21.024;2023-04-06T03:28:24;18.38;;;6.60;;
31402;SDS011;18039;52.188;21.024;2023-04-06T03:30:57;18.38;;;6.32;;
31402;SDS011;18039;52.188;21.024;2023-04-06T03:34:00;11.32;;;5.05;;
31402;SDS011;18039;52.188;21.024;2023-04-06T03:36:34;10.15;;;5.82;;
31402;SDS011;18039;52.188;21.024;2023-04-06T03:39:03;17.35;;;6.05;;
31402;SDS011;18039;52.188;21.024;2023-04-06T03:41:34;15.18;;;6.13;;
31402;SDS011;18039;52.188;21.024;2023-04-06T03:44:21;15.05;;;6.32;;
31402;SDS011;18039;52.188;21.024;2023-04-06T03:46:48;14.90;;;6.55;;
31402;SDS011;18039;52.188;21.024;2023-04-06T03:49:16;15.48;;;6.47;;
31402;SDS011;18039;52.188;21.024;2023-04-06T03:51:47;13.60;;;5.57;;
31402;SDS011;18039;52.188;21.024;2023-04-06T03:54:14;15.50;;;6.05;;
31402;SDS011;18039;52.188;21.024;2023-04-06T03:56:42;16.10;;;6.65;;
31402;SDS011;18039;52.188;21.024;2023-04-06T03:59:09;15.48;;;6.50;;
31402;SDS011;18039;52.188;21.024;2023-04-06T04:01:37;11.80;;;6.28;;
31402;SDS011;18039;52.188;21.024;2023-04-06T04:04:06;12.77;;;6.53;;
31402;SDS011;18039;52.188;21.024;2023-04-06T04:06:33;14.48;;;6.00;;
31402;SDS011;18039;52.188;21.024;2023-04-06T04:09:00;11.98;;;5.40;;
31402;SDS011;18039;52.188;21.024;2023-04-06T04:11:27;16.08;;;6.63;;
31402;SDS011;18039;52.188;21.024;2023-04-06T04:13:57;16.33;;;6.75;;
31402;SDS011;18039;52.188;21.024;2023-04-06T04:16:24;11.88;;;6.18;;
31402;SDS011;18039;52.188;21.024;2023-04-06T04:18:51;17.65;;;6.57;;
31402;SDS011;18039;52.188;21.024;2023-04-06T04:21:18;12.65;;;5.78;;
31402;SDS011;18039;52.188;21.024;2023-04-06T04:23:46;12.10;;;5.47;;
31402;SDS011;18039;52.188;21.024;2023-04-06T04:26:13;15.73;;;6.07;;
31402;SDS011;18039;52.188;21.024;2023-04-06T04:28:43;11.52;;;5.75;;
31402;SDS011;18039;52.188;21.024;2023-04-06T04:31:10;9.57;;;5.82;;
31402;SDS011;18039;52.188;21.024;2023-04-06T04:33:39;14.73;;;6.13;;
31402;SDS011;18039;52.188;21.024;2023-04-06T04:36:11;13.77;;;6.18;;
31402;SDS011;18039;52.188;21.024;2023-04-06T04:38:42;15.77;;;7.22;;
31402;SDS011;18039;52.188;21.024;2023-04-06T04:41:10;12.77;;;6.20;;
31402;SDS011;18039;52.188;21.024;2023-04-06T04:43:40;21.40;;;6.10;;
31402;SDS011;18039;52.188;21.024;2023-04-06T04:46:07;14.18;;;5.82;;
31402;SDS011;18039;52.188;21.024;2023-04-06T04:48:40;18.30;;;6.25;;
31402;SDS011;18039;52.188;21.024;2023-04-06T04:51:08;11.63;;;5.88;;
31402;SDS011;18039;52.188;21.024;2023-04-06T04:53:53;11.88;;;5.45;;
31402;SDS011;18039;52.188;21.024;2023-04-06T04:56:25;16.42;;;5.35;;
31402;SDS011;18039;52.188;21.024;2023-04-06T04:58:57;9.82;;;5.38;;
31402;SDS011;18039;52.188;21.024;2023-04-06T05:01:27;17.92;;;7.43;;
31402;SDS011;18039;52.188;21.024;2023-04-06T05:03:55;9.48;;;4.97;;
31402;SDS011;18039;52.188;21.024;2023-04-06T05:06:22;17.13;;;5.60;;
31402;SDS011;18039;52.188;21.024;2023-04-06T05:08:49;10.82;;;5.75;;
31402;SDS011;18039;52.188;21.024;2023-04-06T05:11:17;17.42;;;6.07;;
31402;SDS011;18039;52.188;21.024;2023-04-06T05:13:52;15.68;;;5.60;;
31402;SDS011;18039;52.188;21.024;2023-04-06T05:16:23;10.85;;;5.38;;
31402;SDS011;18039;52.188;21.024;2023-04-06T05:18:51;9.63;;;5.55;;
31402;SDS011;18039;52.188;21.024;2023-04-06T05:21:19;9.23;;;4.97;;
31402;SDS011;18039;52.188;21.024;2023-04-06T05:23:55;11.68;;;6.53;;
31402;SDS011;18039;52.188;21.024;2023-04-06T05:26:23;10.88;;;6.00;;
31402;SDS011;18039;52.188;21.024;2023-04-06T05:28:54;9.48;;;5.25;;
31402;SDS011;18039;52.188;21.024;2023-04-06T05:31:22;18.05;;;4.88;;
31402;SDS011;18039;52.188;21.024;2023-04-06T05:33:50;13.38;;;5.63;;
31402;SDS011;18039;52.188;21.024;2023-04-06T05:36:28;12.85;;;5.53;;
31402;SDS011;18039;52.188;21.024;2023-04-06T05:38:55;10.80;;;4.93;;
31402;SDS011;18039;52.188;21.024;2023-04-06T05:41:33;11.90;;;5.30;;
31402;SDS011;18039;52.188;21.024;2023-04-06T05:44:01;15.18;;;5.90;;
31402;SDS011;18039;52.188;21.024;2023-04-06T05:46:30;12.20;;;5.82;;
31402;SDS011;18039;52.188;21.024;2023-04-06T05:48:59;9.80;;;4.40;;
31402;SDS011;18039;52.188;21.024;2023-04-06T05:51:30;7.82;;;3.97;;
31402;SDS011;18039;52.188;21.024;2023-04-06T05:53:58;12.35;;;5.15;;
31402;SDS011;18039;52.188;21.024;2023-04-06T05:56:27;10.50;;;4.70;;
31402;SDS011;18039;52.188;21.024;2023-04-06T05:58:54;11.80;;;5.57;;
31402;SDS011;18039;52.188;21.024;2023-04-06T06:01:26;15.20;;;5.57;;
31402;SDS011;18039;52.188;21.024;2023-04-06T06:03:54;13.60;;;5.28;;
31402;SDS011;18039;52.188;21.024;2023-04-06T06:06:26;18.15;;;5.15;;
31402;SDS011;18039;52.188;21.024;2023-04-06T06:09:07;12.80;;;4.25;;
31402;SDS011;18039;52.188;21.024;2023-04-06T06:11:40;13.25;;;5.18;;
31402;SDS011;18039;52.188;21.024;2023-04-06T06:14:11;9.00;;;3.70;;
31402;SDS011;18039;52.188;21.024;2023-04-06T06:16:40;11.65;;;4.43;;
31402;SDS011;18039;52.188;21.024;2023-04-06T06:19:11;7.07;;;4.32;;
31402;SDS011;18039;52.188;21.024;2023-04-06T06:21:39;9.75;;;4.03;;
31402;SDS011;18039;52.188;21.024;2023-04-06T06:24:06;12.52;;;3.67;;
31402;SDS011;18039;52.188;21.024;2023-04-06T06:26:36;7.20;;;3.85;;
31402;SDS011;18039;52.188;21.024;2023-04-06T06:29:06;10.23;;;4.10;;
31402;SDS011;18039;52.188;21.024;2023-04-06T06:31:37;15.05;;;4.15;;
31402;SDS011;18039;52.188;21.024;2023-04-06T06:34:05;6.90;;;3.72;;
31402;SDS011;18039;52.188;21.024;2023-04-06T06:36:35;7.07;;;3.78;;
31402;SDS011;18039;52.188;21.024;2023-04-06T06:39:06;8.63;;;3.83;;
31402;SDS011;18039;52.188;21.024;2023-04-06T06:41:34;4.72;;;2.80;;
31402;SDS011;18039;52.188;21.024;2023-04-06T06:44:03;11.70;;;2.90;;
31402;SDS011;18039;52.188;21.024;2023-04-06T06:46:31;9.55;;;3.25;;
31402;SDS011;18039;52.188;21.024;2023-04-06T06:48:58;10.80;;;3.20;;
31402;SDS011;18039;52.188;21.024;2023-04-06T06:51:26;5.68;;;2.60;;
31402;SDS011;18039;52.188;21.024;2023-04-06T06:53:54;5.78;;;2.42;;
31402;SDS011;18039;52.188;21.024;2023-04-06T06:56:21;7.13;;;2.80;;
31402;SDS011;18039;52.188;21.024;2023-04-06T06:58:50;6.38;;;2.53;;
31402;SDS011;18039;52.188;21.024;2023-04-06T07:01:18;5.65;;;2.65;;
31402;SDS011;18039;52.188;21.024;2023-04-06T07:03:46;6.35;;;2.60;;
31402;SDS011;18039;52.188;21.024;2023-04-06T07:06:14;6.97;;;3.10;;
31402;SDS011;18039;52.188;21.024;2023-04-06T07:08:41;6.15;;;2.78;;
31402;SDS011;18039;52.188;21.024;2023-04-06T07:11:09;8.25;;;2.80;;
31402;SDS011;18039;52.188;21.024;2023-04-06T07:13:37;7.80;;;2.40;;
31402;SDS011;18039;52.188;21.024;2023-04-06T07:16:05;12.07;;;2.80;;
31402;SDS011;18039;52.188;21.024;2023-04-06T07:18:32;8.27;;;2.95;;
31402;SDS011;18039;52.188;21.024;2023-04-06T07:21:02;6.70;;;2.38;;
31402;SDS011;18039;52.188;21.024;2023-04-06T07:23:30;5.47;;;2.80;;
31402;SDS011;18039;52.188;21.024;2023-04-06T07:25:57;5.85;;;2.65;;
31402;SDS011;18039;52.188;21.024;2023-04-06T07:28:24;5.57;;;2.63;;
31402;SDS011;18039;52.188;21.024;2023-04-06T07:30:53;6.18;;;2.72;;
31402;SDS011;18039;52.188;21.024;2023-04-06T07:33:22;5.78;;;2.80;;
31402;SDS011;18039;52.188;21.024;2023-04-06T07:35:50;8.80;;;2.85;;
31402;SDS011;18039;52.188;21.024;2023-04-06T07:38:21;5.32;;;2.22;;
31402;SDS011;18039;52.188;21.024;2023-04-06T07:40:50;6.78;;;2.67;;
31402;SDS011;18039;52.188;21.024;2023-04-06T07:43:18;5.90;;;3.00;;
31402;SDS011;18039;52.188;21.024;2023-04-06T07:45:45;4.70;;;2.67;;
31402;SDS011;18039;52.188;21.024;2023-04-06T07:48:15;5.60;;;2.88;;
31402;SDS011;18039;52.188;21.024;2023-04-06T07:50:45;4.00;;;2.65;;
31402;SDS011;18039;52.188;21.024;2023-04-06T07:53:13;7.80;;;3.35;;
31402;SDS011;18039;52.188;21.024;2023-04-06T07:55:42;12.20;;;3.40;;
31402;SDS011;18039;52.188;21.024;2023-04-06T07:58:09;6.45;;;2.67;;
31402;SDS011;18039;52.188;21.024;2023-04-06T08:00:37;8.50;;;3.08;;
31402;SDS011;18039;52.188;21.024;2023-04-06T08:03:04;8.40;;;3.35;;
31402;SDS011;18039;52.188;21.024;2023-04-06T08:05:32;6.53;;;3.03;;
31402;SDS011;18039;52.188;21.024;2023-04-06T08:07:59;6.10;;;3.35;;
31402;SDS011;18039;52.188;21.024;2023-04-06T08:10:27;7.03;;;3.25;;
31402;SDS011;18039;52.188;21.024;2023-04-06T08:12:54;6.30;;;3.25;;
31402;SDS011;18039;52.188;21.024;2023-04-06T08:15:22;8.23;;;3.15;;
31402;SDS011;18039;52.188;21.024;2023-04-06T08:17:49;6.18;;;3.00;;
31402;SDS011;18039;52.188;21.024;2023-04-06T08:20:16;5.53;;;3.33;;
31402;SDS011;18039;52.188;21.024;2023-04-06T08:22:43;6.63;;;2.95;;
31402;SDS011;18039;52.188;21.024;2023-04-06T08:25:11;6.28;;;3.22;;
31402;SDS011;18039;52.188;21.024;2023-04-06T08:27:38;9.93;;;3.25;;
31402;SDS011;18039;52.188;21.024;2023-04-06T08:30:06;7.20;;;2.80;;
31402;SDS011;18039;52.188;21.024;2023-04-06T08:32:33;7.68;;;3.13;;
31402;SDS011;18039;52.188;21.024;2023-04-06T08:35:01;7.32;;;2.92;;
31402;SDS011;18039;52.188;21.024;2023-04-06T08:37:28;4.03;;;2.60;;
31402;SDS011;18039;52.188;21.024;2023-04-06T08:39:56;5.10;;;2.55;;
31402;SDS011;18039;52.188;21.024;2023-04-06T08:42:25;7.93;;;3.40;;
31402;SDS011;18039;52.188;21.024;2023-04-06T08:44:53;4.45;;;2.75;;
31402;SDS011;18039;52.188;21.024;2023-04-06T08:47:22;8.95;;;2.75;;
31402;SDS011;18039;52.188;21.024;2023-04-06T08:49:51;6.72;;;3.17;;
31402;SDS011;18039;52.188;21.024;2023-04-06T08:52:20;7.63;;;3.42;;
31402;SDS011;18039;52.188;21.024;2023-04-06T08:54:48;5.35;;;2.80;;
31402;SDS011;18039;52.188;21.024;2023-04-06T08:57:15;9.43;;;3.30;;
31402;SDS011;18039;52.188;21.024;2023-04-06T08:59:43;8.80;;;2.85;;
31402;SDS011;18039;52.188;21.024;2023-04-06T09:02:14;7.18;;;2.92;;
31402;SDS011;18039;52.188;21.024;2023-04-06T09:04:46;5.75;;;2.72;;
31402;SDS011;18039;52.188;21.024;2023-04-06T09:07:15;12.55;;;3.20;;
31402;SDS011;18039;52.188;21.024;2023-04-06T09:09:43;8.00;;;3.17;;
31402;SDS011;18039;52.188;21.024;2023-04-06T09:14:55;6.63;;;3.25;;
31402;SDS011;18039;52.188;21.024;2023-04-06T09:17:28;7.57;;;3.05;;
31402;SDS011;18039;52.188;21.024;2023-04-06T09:19:57;6.82;;;3.60;;
31402;SDS011;18039;52.188;21.024;2023-04-06T09:22:25;9.32;;;3.35;;
31402;SDS011;18039;52.188;21.024;2023-04-06T09:24:54;5.47;;;2.95;;
31402;SDS011;18039;52.188;21.024;2023-04-06T09:27:31;12.98;;;4.30;;
31402;SDS011;18039;52.188;21.024;2023-04-06T09:30:05;5.95;;;3.50;;
31402;SDS011;18039;52.188;21.024;2023-04-06T09:32:50;7.95;;;4.20;;
31402;SDS011;18039;52.188;21.024;2023-04-06T09:35:19;5.25;;;3.38;;
31402;SDS011;18039;52.188;21.024;2023-04-06T09:37:48;6.55;;;3.65;;
31402;SDS011;18039;52.188;21.024;2023-04-06T09:40:17;6.75;;;3.88;;
31402;SDS011;18039;52.188;21.024;2023-04-06T09:42:46;9.15;;;3.72;;
31402;SDS011;18039;52.188;21.024;2023-04-06T09:45:14;8.15;;;4.00;;
31402;SDS011;18039;52.188;21.024;2023-04-06T09:47:45;6.50;;;4.15;;
31402;SDS011;18039;52.188;21.024;2023-04-06T09:50:13;8.60;;;3.97;;
31402;SDS011;18039;52.188;21.024;2023-04-06T09:52:46;6.18;;;3.78;;
31402;SDS011;18039;52.188;21.024;2023-04-06T09:55:34;12.35;;;4.50;;
31402;SDS011;18039;52.188;21.024;2023-04-06T09:58:07;8.25;;;3.97;;
31402;SDS011;18039;52.188;21.024;2023-04-06T10:00:50;10.80;;;4.90;;
31402;SDS011;18039;52.188;21.024;2023-04-06T10:06:20;10.05;;;6.47;;
31402;SDS011;18039;52.188;21.024;2023-04-06T10:08:49;10.10;;;6.55;;
31402;SDS011;18039;52.188;21.024;2023-04-06T10:11:18;12.52;;;6.53;;
31402;SDS011;18039;52.188;21.024;2023-04-06T10:13:46;13.40;;;7.30;;
31402;SDS011;18039;52.188;21.024;2023-04-06T10:16:16;13.50;;;6.35;;
31402;SDS011;18039;52.188;21.024;2023-04-06T10:18:45;7.40;;;4.57;;
31402;SDS011;18039;52.188;21.024;2023-04-06T10:21:23;10.10;;;5.80;;
31402;SDS011;18039;52.188;21.024;2023-04-06T10:23:59;8.65;;;5.38;;
31402;SDS011;18039;52.188;21.024;2023-04-06T10:26:28;8.02;;;4.40;;
31402;SDS011;18039;52.188;21.024;2023-04-06T10:28:55;7.75;;;4.32;;
31402;SDS011;18039;52.188;21.024;2023-04-06T10:31:29;10.90;;;3.90;;
31402;SDS011;18039;52.188;21.024;2023-04-06T10:33:57;6.85;;;3.92;;
31402;SDS011;18039;52.188;21.024;2023-04-06T10:36:26;7.65;;;3.95;;
31402;SDS011;18039;52.188;21.024;2023-04-06T10:38:56;6.68;;;4.35;;
31402;SDS011;18039;52.188;21.024;2023-04-06T10:41:32;8.20;;;4.13;;
31402;SDS011;18039;52.188;21.024;2023-04-06T10:44:00;7.13;;;4.65;;
31402;SDS011;18039;52.188;21.024;2023-04-06T10:46:28;9.02;;;4.85;;
31402;SDS011;18039;52.188;21.024;2023-04-06T10:48:57;5.95;;;3.90;;
31402;SDS011;18039;52.188;21.024;2023-04-06T10:51:25;8.45;;;4.47;;
31402;SDS011;18039;52.188;21.024;2023-04-06T10:53:55;8.70;;;4.63;;
31402;SDS011;18039;52.188;21.024;2023-04-06T10:56:24;7.82;;;4.40;;
31402;SDS011;18039;52.188;21.024;2023-04-06T10:58:54;8.32;;;4.68;;
31402;SDS011;18039;52.188;21.024;2023-04-06T11:01:23;9.15;;;5.00;;
31402;SDS011;18039;52.188;21.024;2023-04-06T11:03:55;10.95;;;5.13;;
31402;SDS011;18039;52.188;21.024;2023-04-06T11:06:28;7.80;;;4.93;;
31402;SDS011;18039;52.188;21.024;2023-04-06T11:08:57;7.40;;;4.63;;
31402;SDS011;18039;52.188;21.024;2023-04-06T11:11:25;9.60;;;5.22;;
31402;SDS011;18039;52.188;21.024;2023-04-06T11:13:55;7.13;;;4.30;;
31402;SDS011;18039;52.188;21.024;2023-04-06T11:16:24;8.77;;;4.55;;
31402;SDS011;18039;52.188;21.024;2023-04-06T11:23:25;9.75;;;4.22;;
31402;SDS011;18039;52.188;21.024;2023-04-06T11:25:53;9.82;;;4.70;;
31402;SDS011;18039;52.188;21.024;2023-04-06T11:28:20;10.00;;;4.90;;
31402;SDS011;18039;52.188;21.024;2023-04-06T11:30:48;7.45;;;5.00;;
31402;SDS011;18039;52.188;21.024;2023-04-06T11:33:21;11.68;;;5.47;;
31402;SDS011;18039;52.188;21.024;2023-04-06T11:35:52;11.82;;;5.45;;
31402;SDS011;18039;52.188;21.024;2023-04-06T11:38:23;11.38;;;5.88;;
31402;SDS011;18039;52.188;21.024;2023-04-06T11:40:53;10.68;;;5.72;;
31402;SDS011;18039;52.188;21.024;2023-04-06T11:43:28;9.13;;;5.30;;
31402;SDS011;18039;52.188;21.024;2023-04-06T11:46:01;10.13;;;4.90;;
31402;SDS011;18039;52.188;21.024;2023-04-06T11:48:30;10.15;;;5.78;;
31402;SDS011;18039;52.188;21.024;2023-04-06T11:50:58;8.45;;;5.93;;
31402;SDS011;18039;52.188;21.024;2023-04-06T11:53:31;10.70;;;6.85;;
31402;SDS011;18039;52.188;21.024;2023-04-06T11:56:00;13.20;;;6.82;;
31402;SDS011;18039;52.188;21.024;2023-04-06T11:58:27;10.55;;;6.18;;
31402;SDS011;18039;52.188;21.024;2023-04-06T12:01:02;11.98;;;6.63;;
31402;SDS011;18039;52.188;21.024;2023-04-06T12:03:30;12.43;;;5.82;;
31402;SDS011;18039;52.188;21.024;2023-04-06T12:05:58;12.60;;;6.15;;
31402;SDS011;18039;52.188;21.024;2023-04-06T12:08:25;10.55;;;6.38;;
31402;SDS011;18039;52.188;21.024;2023-04-06T12:10:53;9.32;;;6.35;;
31402;SDS011;18039;52.188;21.024;2023-04-06T12:13:20;8.63;;;6.10;;
31402;SDS011;18039;52.188;21.024;2023-04-06T12:15:48;11.18;;;6.65;;
31402;SDS011;18039;52.188;21.024;2023-04-06T12:18:19;14.43;;;6.23;;
31402;SDS011;18039;52.188;21.024;2023-04-06T12:20:46;10.52;;;6.88;;
31402;SDS011;18039;52.188;21.024;2023-04-06T12:23:14;8.80;;;5.95;;
31402;SDS011;18039;52.188;21.024;2023-04-06T12:25:41;11.55;;;6.65;;
31402;SDS011;18039;52.188;21.024;2023-04-06T12:28:09;9.73;;;6.22;;
31402;SDS011;18039;52.188;21.024;2023-04-06T12:30:37;11.57;;;7.10;;
31402;SDS011;18039;52.188;21.024;2023-04-06T12:33:05;10.70;;;6.35;;
31402;SDS011;18039;52.188;21.024;2023-04-06T12:35:36;12.88;;;7.40;;
31402;SDS011;18039;52.188;21.024;2023-04-06T12:40:35;11.60;;;6.10;;
31402;SDS011;18039;52.188;21.024;2023-04-06T12:43:03;12.13;;;6.38;;
31402;SDS011;18039;52.188;21.024;2023-04-06T12:45:31;10.98;;;6.38;;
31402;SDS011;18039;52.188;21.024;2023-04-06T12:47:59;12.43;;;6.57;;
31402;SDS011;18039;52.188;21.024;2023-04-06T12:50:27;9.38;;;6.68;;
31402;SDS011;18039;52.188;21.024;2023-04-06T12:52:54;9.48;;;6.00;;
31402;SDS011;18039;52.188;21.024;2023-04-06T12:55:22;11.68;;;6.07;;
31402;SDS011;18039;52.188;21.024;2023-04-06T12:57:49;9.63;;;6.10;;
31402;SDS011;18039;52.188;21.024;2023-04-06T13:00:17;8.88;;;5.50;;
31402;SDS011;18039;52.188;21.024;2023-04-06T13:02:45;11.05;;;5.20;;
31402;SDS011;18039;52.188;21.024;2023-04-06T13:05:14;11.32;;;5.03;;
31402;SDS011;18039;52.188;21.024;2023-04-06T13:07:46;7.70;;;4.80;;
31402;SDS011;18039;52.188;21.024;2023-04-06T13:10:14;6.80;;;4.10;;
31402;SDS011;18039;52.188;21.024;2023-04-06T13:12:41;6.18;;;4.68;;
31402;SDS011;18039;52.188;21.024;2023-04-06T13:15:10;9.43;;;5.00;;
31402;SDS011;18039;52.188;21.024;2023-04-06T13:17:37;9.52;;;5.07;;
31402;SDS011;18039;52.188;21.024;2023-04-06T13:20:05;8.70;;;4.65;;
31402;SDS011;18039;52.188;21.024;2023-04-06T13:22:33;13.13;;;5.28;;
31402;SDS011;18039;52.188;21.024;2023-04-06T13:25:00;10.43;;;5.10;;
31402;SDS011;18039;52.188;21.024;2023-04-06T13:27:28;9.45;;;4.32;;
31402;SDS011;18039;52.188;21.024;2023-04-06T13:29:55;11.23;;;6.47;;
31402;SDS011;18039;52.188;21.024;2023-04-06T13:32:23;8.10;;;5.30;;
31402;SDS011;18039;52.188;21.024;2023-04-06T13:34:50;11.13;;;5.47;;
31402;SDS011;18039;52.188;21.024;2023-04-06T13:37:20;11.95;;;6.28;;
31402;SDS011;18039;52.188;21.024;2023-04-06T13:39:48;13.73;;;7.65;;
31402;SDS011;18039;52.188;21.024;2023-04-06T13:42:15;11.07;;;6.88;;
31402;SDS011;18039;52.188;21.024;2023-04-06T13:44:43;12.77;;;7.93;;
31402;SDS011;18039;52.188;21.024;2023-04-06T13:47:10;12.30;;;8.05;;
31402;SDS011;18039;52.188;21.024;2023-04-06T13:49:38;11.57;;;7.20;;
31402;SDS011;18039;52.188;21.024;2023-04-06T13:52:05;14.25;;;6.60;;
31402;SDS011;18039;52.188;21.024;2023-04-06T13:54:32;11.07;;;6.15;;
31402;SDS011;18039;52.188;21.024;2023-04-06T13:57:00;10.70;;;6.10;;
31402;SDS011;18039;52.188;21.024;2023-04-06T13:59:31;9.85;;;5.35;;
31402;SDS011;18039;52.188;21.024;2023-04-06T14:02:01;10.05;;;5.97;;
31402;SDS011;18039;52.188;21.024;2023-04-06T14:04:36;9.50;;;5.50;;
31402;SDS011;18039;52.188;21.024;2023-04-06T14:07:08;12.18;;;6.00;;
31402;SDS011;18039;52.188;21.024;2023-04-06T14:09:36;8.18;;;5.00;;
31402;SDS011;18039;52.188;21.024;2023-04-06T14:12:03;8.98;;;5.50;;
31402;SDS011;18039;52.188;21.024;2023-04-06T14:14:30;13.35;;;6.55;;
31402;SDS011;18039;52.188;21.024;2023-04-06T14:16:57;13.25;;;6.10;;
31402;SDS011;18039;52.188;21.024;2023-04-06T14:19:25;12.18;;;6.80;;
31402;SDS011;18039;52.188;21.024;2023-04-06T14:21:52;11.93;;;6.20;;
31402;SDS011;18039;52.188;21.024;2023-04-06T14:24:20;12.32;;;6.07;;
31402;SDS011;18039;52.188;21.024;2023-04-06T14:26:47;11.82;;;6.47;;
31402;SDS011;18039;52.188;21.024;2023-04-06T14:29:14;12.27;;;6.90;;
31402;SDS011;18039;52.188;21.024;2023-04-06T14:31:44;11.50;;;6.80;;
31402;SDS011;18039;52.188;21.024;2023-04-06T14:34:13;10.60;;;6.45;;
31402;SDS011;18039;52.188;21.024;2023-04-06T14:36:40;10.57;;;5.93;;
31402;SDS011;18039;52.188;21.024;2023-04-06T14:39:08;14.02;;;7.53;;
31402;SDS011;18039;52.188;21.024;2023-04-06T14:41:36;10.02;;;6.53;;
31402;SDS011;18039;52.188;21.024;2023-04-06T14:44:04;10.50;;;6.53;;
31402;SDS011;18039;52.188;21.024;2023-04-06T14:46:32;11.20;;;6.57;;
31402;SDS011;18039;52.188;21.024;2023-04-06T14:48:59;12.15;;;6.82;;
31402;SDS011;18039;52.188;21.024;2023-04-06T14:51:27;12.38;;;6.20;;
31402;SDS011;18039;52.188;21.024;2023-04-06T14:53:54;9.13;;;5.72;;
31402;SDS011;18039;52.188;21.024;2023-04-06T14:56:22;11.13;;;5.82;;